sensor_id;sensor_type;location;lat;lon;timestamp;pressure;altitude;pressure_sealevel;temperature;humidity
7168;BME280;3625;51.762;14.320;2023-02-10T00:01:49;102385.66;;;-2.54;100.00
7168;BME280;3625;51.762;14.320;2023-02-10T00:04:23;102380.94;;;-2.46;100.00
7168;BME280;3625;51.762;14.320;2023-02-10T00:06:52;102392.97;;;-2.47;100.00
7168;BME280;3625;51.762;14.320;2023-02-10T00:09:29;102388.81;;;-2.45;100.00
7168;BME280;3625;51.762;14.320;2023-02-10T00:11:58;102380.66;;;-2.51;100.00
7168;BME280;3625;51.762;14.320;2023-02-10T00:14:30;102379.03;;;-2.49;100.00
7168;BME280;3625;51.762;14.320;2023-02-10T00:16:59;102378.59;;;-2.42;100.00
7168;BME280;3625;51.762;14.320;2023-02-10T00:19:31;102380.38;;;-2.41;100.00
7168;BME280;3625;51.762;14.320;2023-02-10T00:22:01;102374.25;;;-2.43;100.00
7168;BME280;3625;51.762;14.320;2023-02-10T00:24:41;102379.50;;;-2.41;100.00
7168;BME280;3625;51.762;14.320;2023-02-10T00:27:10;102370.59;;;-2.32;100.00
7168;BME280;3625;51.762;14.320;2023-02-10T00:29:43;102368.66;;;-2.21;100.00
7168;BME280;3625;51.762;14.320;2023-02-10T00:32:16;102373.72;;;-2.22;100.00
7168;BME280;3625;51.762;14.320;2023-02-10T00:34:47;102373.56;;;-2.25;100.00
7168;BME280;3625;51.762;14.320;2023-02-10T00:37:16;102375.88;;;-2.30;100.00
7168;BME280;3625;51.762;14.320;2023-02-10T00:39:47;102380.81;;;-2.20;100.00
7168;BME280;3625;51.762;14.320;2023-02-10T00:42:17;102381.00;;;-2.02;100.00
7168;BME280;3625;51.762;14.320;2023-02-10T00:44:48;102384.16;;;-1.93;100.00
7168;BME280;3625;51.762;14.320;2023-02-10T00:47:19;102386.47;;;-1.68;100.00
7168;BME280;3625;51.762;14.320;2023-02-10T00:49:50;102394.53;;;-1.49;100.00
7168;BME280;3625;51.762;14.320;2023-02-10T00:52:22;102401.47;;;-1.33;100.00
7168;BME280;3625;51.762;14.320;2023-02-10T00:54:53;102403.59;;;-1.26;100.00
7168;BME280;3625;51.762;14.320;2023-02-10T00:57:27;102393.03;;;-1.29;100.00
7168;BME280;3625;51.762;14.320;2023-02-10T00:59:57;102402.47;;;-1.31;100.00
7168;BME280;3625;51.762;14.320;2023-02-10T01:02:26;102400.81;;;-1.29;100.00
7168;BME280;3625;51.762;14.320;2023-02-10T01:04:55;102396.09;;;-1.22;100.00
7168;BME280;3625;51.762;14.320;2023-02-10T01:07:24;102404.06;;;-1.02;100.00
7168;BME280;3625;51.762;14.320;2023-02-10T01:09:57;102406.66;;;-0.88;99.45
7168;BME280;3625;51.762;14.320;2023-02-10T01:12:26;102407.16;;;-0.79;98.82
7168;BME280;3625;51.762;14.320;2023-02-10T01:14:55;102414.56;;;-0.70;98.29
7168;BME280;3625;51.762;14.320;2023-02-10T01:17:34;102405.47;;;-0.62;97.59
7168;BME280;3625;51.762;14.320;2023-02-10T01:20:03;102405.31;;;-0.49;96.83
7168;BME280;3625;51.762;14.320;2023-02-10T01:22:35;102397.28;;;-0.37;95.13
7168;BME280;3625;51.762;14.320;2023-02-10T01:25:19;102391.69;;;-0.28;94.49
7168;BME280;3625;51.762;14.320;2023-02-10T01:27:50;102385.16;;;-0.20;93.50
7168;BME280;3625;51.762;14.320;2023-02-10T01:30:28;102378.56;;;-0.14;93.30
7168;BME280;3625;51.762;14.320;2023-02-10T01:33:01;102386.03;;;-0.04;92.96
7168;BME280;3625;51.762;14.320;2023-02-10T01:35:30;102382.94;;;0.04;94.13
7168;BME280;3625;51.762;14.320;2023-02-10T01:38:04;102378.91;;;0.10;93.65
7168;BME280;3625;51.762;14.320;2023-02-10T01:40:37;102379.97;;;0.14;93.49
7168;BME280;3625;51.762;14.320;2023-02-10T01:43:14;101991.56;;;-1.95;90.83
7168;BME280;3625;51.762;14.320;2023-02-10T01:45:48;102379.03;;;0.29;91.17
7168;BME280;3625;51.762;14.320;2023-02-10T01:48:18;102379.13;;;0.31;90.92
7168;BME280;3625;51.762;14.320;2023-02-10T01:50:52;102145.25;;;-1.02;89.66
7168;BME280;3625;51.762;14.320;2023-02-10T01:53:28;102373.09;;;0.32;89.34
7168;BME280;3625;51.762;14.320;2023-02-10T01:56:02;102378.59;;;0.38;88.97
7168;BME280;3625;51.762;14.320;2023-02-10T01:58:34;102230.09;;;-0.52;88.71
7168;BME280;3625;51.762;14.320;2023-02-10T02:01:09;102393.88;;;0.48;88.47
7168;BME280;3625;51.762;14.320;2023-02-10T02:03:45;102396.03;;;0.57;87.14
7168;BME280;3625;51.762;14.320;2023-02-10T02:06:18;102397.00;;;0.59;87.06
7168;BME280;3625;51.762;14.320;2023-02-10T02:08:56;102405.66;;;0.58;86.58
7168;BME280;3625;51.762;14.320;2023-02-10T02:11:45;102388.81;;;0.51;87.34
7168;BME280;3625;51.762;14.320;2023-02-10T02:14:38;102006.06;;;-1.66;85.71
7168;BME280;3625;51.762;14.320;2023-02-10T02:17:32;102263.31;;;-0.13;86.90
7168;BME280;3625;51.762;14.320;2023-02-10T02:20:48;102365.00;;;0.44;86.69
7168;BME280;3625;51.762;14.320;2023-02-10T02:23:50;102261.34;;;-0.17;87.67
7168;BME280;3625;51.762;14.320;2023-02-10T02:32:45;102199.97;;;-0.65;91.64
7168;BME280;3625;51.762;14.320;2023-02-10T02:35:24;102419.78;;;0.63;94.49
7168;BME280;3625;51.762;14.320;2023-02-10T02:38:01;102413.06;;;0.50;98.38
7168;BME280;3625;51.762;14.320;2023-02-10T02:40:31;102420.72;;;0.47;98.95
7168;BME280;3625;51.762;14.320;2023-02-10T02:43:06;102429.94;;;0.41;100.00
7168;BME280;3625;51.762;14.320;2023-02-10T02:45:46;102431.50;;;0.37;100.00
7168;BME280;3625;51.762;14.320;2023-02-10T02:48:45;102266.25;;;-0.57;100.00
7168;BME280;3625;51.762;14.320;2023-02-10T02:51:39;102017.72;;;-2.07;100.00
7168;BME280;3625;51.762;14.320;2023-02-10T02:54:30;102427.03;;;0.34;100.00
7168;BME280;3625;51.762;14.320;2023-02-10T02:57:44;102191.84;;;-1.05;100.00
7168;BME280;3625;51.762;14.320;2023-02-10T03:00:20;102310.69;;;-0.52;100.00
7168;BME280;3625;51.762;14.320;2023-02-10T03:02:54;102425.59;;;0.23;100.00
7168;BME280;3625;51.762;14.320;2023-02-10T03:05:32;102190.47;;;-1.15;100.00
7168;BME280;3625;51.762;14.320;2023-02-10T03:08:04;102420.13;;;0.19;100.00
7168;BME280;3625;51.762;14.320;2023-02-10T03:10:33;102424.41;;;0.17;100.00
7168;BME280;3625;51.762;14.320;2023-02-10T03:13:04;102428.84;;;0.19;100.00
7168;BME280;3625;51.762;14.320;2023-02-10T03:15:35;102421.19;;;0.22;100.00
7168;BME280;3625;51.762;14.320;2023-02-10T03:18:04;102426.16;;;0.18;100.00
7168;BME280;3625;51.762;14.320;2023-02-10T03:20:34;102419.41;;;0.21;100.00
7168;BME280;3625;51.762;14.320;2023-02-10T03:23:08;102429.22;;;0.27;100.00
7168;BME280;3625;51.762;14.320;2023-02-10T03:26:49;102428.34;;;0.26;100.00
7168;BME280;3625;51.762;14.320;2023-02-10T03:28:39;102432.59;;;0.24;100.00
7168;BME280;3625;51.762;14.320;2023-02-10T03:31:08;102431.84;;;0.27;100.00
7168;BME280;3625;51.762;14.320;2023-02-10T03:33:42;102432.81;;;0.29;100.00
7168;BME280;3625;51.762;14.320;2023-02-10T03:36:18;102425.97;;;0.31;100.00
7168;BME280;3625;51.762;14.320;2023-02-10T03:38:58;102435.59;;;0.32;100.00
7168;BME280;3625;51.762;14.320;2023-02-10T03:41:33;102428.66;;;0.32;100.00
7168;BME280;3625;51.762;14.320;2023-02-10T03:44:04;102430.06;;;0.26;100.00
7168;BME280;3625;51.762;14.320;2023-02-10T03:46:36;102424.94;;;0.11;100.00
7168;BME280;3625;51.762;14.320;2023-02-10T03:49:13;102436.28;;;-0.05;100.00
7168;BME280;3625;51.762;14.320;2023-02-10T03:51:46;102435.22;;;-0.24;100.00
7168;BME280;3625;51.762;14.320;2023-02-10T03:54:15;102434.31;;;-0.41;100.00
7168;BME280;3625;51.762;14.320;2023-02-10T03:56:44;102440.66;;;-0.52;100.00
7168;BME280;3625;51.762;14.320;2023-02-10T03:59:12;102429.00;;;-0.59;100.00
7168;BME280;3625;51.762;14.320;2023-02-10T04:01:42;102432.28;;;-0.63;100.00
7168;BME280;3625;51.762;14.320;2023-02-10T04:04:17;102429.25;;;-0.70;100.00
7168;BME280;3625;51.762;14.320;2023-02-10T04:06:53;102439.25;;;-0.78;100.00
7168;BME280;3625;51.762;14.320;2023-02-10T04:09:26;102434.34;;;-0.88;100.00
7168;BME280;3625;51.762;14.320;2023-02-10T04:12:03;102437.56;;;-0.92;100.00
7168;BME280;3625;51.762;14.320;2023-02-10T04:14:42;102447.41;;;-0.87;100.00
7168;BME280;3625;51.762;14.320;2023-02-10T04:17:12;102445.16;;;-0.81;100.00
7168;BME280;3625;51.762;14.320;2023-02-10T04:19:52;102443.78;;;-0.74;100.00
7168;BME280;3625;51.762;14.320;2023-02-10T04:22:26;102448.25;;;-0.71;100.00
7168;BME280;3625;51.762;14.320;2023-02-10T04:24:57;102450.69;;;-0.74;100.00
7168;BME280;3625;51.762;14.320;2023-02-10T04:27:26;102453.28;;;-0.74;100.00
7168;BME280;3625;51.762;14.320;2023-02-10T04:30:01;102447.84;;;-0.79;100.00
7168;BME280;3625;51.762;14.320;2023-02-10T04:32:31;102451.34;;;-0.79;100.00
7168;BME280;3625;51.762;14.320;2023-02-10T04:35:00;102455.69;;;-0.78;100.00
7168;BME280;3625;51.762;14.320;2023-02-10T04:37:34;102454.75;;;-0.80;100.00
7168;BME280;3625;51.762;14.320;2023-02-10T04:40:06;102456.03;;;-0.88;100.00
7168;BME280;3625;51.762;14.320;2023-02-10T04:42:36;102465.16;;;-0.94;100.00
7168;BME280;3625;51.762;14.320;2023-02-10T04:45:12;102463.81;;;-1.02;100.00
7168;BME280;3625;51.762;14.320;2023-02-10T05:21:47;102470.59;;;-0.59;100.00
7168;BME280;3625;51.762;14.320;2023-02-10T05:24:17;102476.09;;;-0.69;100.00
7168;BME280;3625;51.762;14.320;2023-02-10T05:26:51;102478.84;;;-0.82;100.00
7168;BME280;3625;51.762;14.320;2023-02-10T05:29:20;102488.91;;;-0.88;100.00
7168;BME280;3625;51.762;14.320;2023-02-10T05:31:58;102481.56;;;-0.95;100.00
7168;BME280;3625;51.762;14.320;2023-02-10T05:34:30;102483.38;;;-1.09;100.00
7168;BME280;3625;51.762;14.320;2023-02-10T05:37:03;102489.72;;;-1.19;100.00
7168;BME280;3625;51.762;14.320;2023-02-10T05:39:32;102490.53;;;-1.20;100.00
7168;BME280;3625;51.762;14.320;2023-02-10T05:42:14;102494.38;;;-1.28;100.00
7168;BME280;3625;51.762;14.320;2023-02-10T05:44:43;102490.53;;;-1.34;100.00
7168;BME280;3625;51.762;14.320;2023-02-10T05:47:24;102493.94;;;-1.35;100.00
7168;BME280;3625;51.762;14.320;2023-02-10T05:49:59;102493.34;;;-1.31;100.00
7168;BME280;3625;51.762;14.320;2023-02-10T05:52:32;102501.03;;;-1.33;100.00
7168;BME280;3625;51.762;14.320;2023-02-10T05:55:03;102499.31;;;-1.32;100.00
7168;BME280;3625;51.762;14.320;2023-02-10T05:57:36;102504.31;;;-1.35;100.00
7168;BME280;3625;51.762;14.320;2023-02-10T06:00:23;102497.88;;;-1.42;100.00
7168;BME280;3625;51.762;14.320;2023-02-10T06:03:00;102502.09;;;-1.44;100.00
7168;BME280;3625;51.762;14.320;2023-02-10T06:05:29;102501.19;;;-1.44;100.00
7168;BME280;3625;51.762;14.320;2023-02-10T06:08:04;102505.69;;;-1.42;100.00
7168;BME280;3625;51.762;14.320;2023-02-10T06:10:37;102497.97;;;-1.40;100.00
7168;BME280;3625;51.762;14.320;2023-02-10T06:13:10;102497.69;;;-1.45;100.00
7168;BME280;3625;51.762;14.320;2023-02-10T06:15:45;102500.47;;;-1.42;100.00
7168;BME280;3625;51.762;14.320;2023-02-10T06:18:34;102511.91;;;-1.38;100.00
7168;BME280;3625;51.762;14.320;2023-02-10T06:21:05;102510.16;;;-1.39;100.00
7168;BME280;3625;51.762;14.320;2023-02-10T06:23:46;102522.41;;;-1.37;100.00
7168;BME280;3625;51.762;14.320;2023-02-10T06:26:19;102518.41;;;-1.32;100.00
7168;BME280;3625;51.762;14.320;2023-02-10T06:28:48;102522.25;;;-1.25;100.00
7168;BME280;3625;51.762;14.320;2023-02-10T06:31:20;102532.72;;;-1.24;100.00
7168;BME280;3625;51.762;14.320;2023-02-10T06:34:00;102526.53;;;-1.26;100.00
7168;BME280;3625;51.762;14.320;2023-02-10T06:36:33;102521.59;;;-1.36;100.00
7168;BME280;3625;51.762;14.320;2023-02-10T06:42:24;102531.53;;;-1.43;100.00
7168;BME280;3625;51.762;14.320;2023-02-10T06:44:55;102529.13;;;-1.40;100.00
7168;BME280;3625;51.762;14.320;2023-02-10T06:47:24;102519.91;;;-1.35;100.00
7168;BME280;3625;51.762;14.320;2023-02-10T06:49:57;102516.25;;;-1.24;100.00
7168;BME280;3625;51.762;14.320;2023-02-10T06:52:31;102519.28;;;-1.17;100.00
7168;BME280;3625;51.762;14.320;2023-02-10T06:55:14;102522.13;;;-1.12;100.00
7168;BME280;3625;51.762;14.320;2023-02-10T06:57:45;102529.56;;;-1.03;100.00
7168;BME280;3625;51.762;14.320;2023-02-10T07:00:15;102533.25;;;-1.00;100.00
7168;BME280;3625;51.762;14.320;2023-02-10T07:02:44;102528.56;;;-0.91;100.00
7168;BME280;3625;51.762;14.320;2023-02-10T07:05:25;102529.09;;;-0.82;100.00
7168;BME280;3625;51.762;14.320;2023-02-10T07:08:02;102530.19;;;-0.78;100.00
7168;BME280;3625;51.762;14.320;2023-02-10T07:10:37;102531.66;;;-0.67;100.00
7168;BME280;3625;51.762;14.320;2023-02-10T07:13:08;102537.81;;;-0.50;100.00
7168;BME280;3625;51.762;14.320;2023-02-10T07:15:43;102548.44;;;-0.31;100.00
7168;BME280;3625;51.762;14.320;2023-02-10T07:18:49;102549.13;;;-0.03;100.00
7168;BME280;3625;51.762;14.320;2023-02-10T07:21:25;102554.34;;;0.14;100.00
7168;BME280;3625;51.762;14.320;2023-02-10T07:24:19;102555.31;;;0.32;100.00
7168;BME280;3625;51.762;14.320;2023-02-10T07:27:46;102378.81;;;-0.42;100.00
7168;BME280;3625;51.762;14.320;2023-02-10T07:30:20;102558.72;;;0.63;100.00
7168;BME280;3625;51.762;14.320;2023-02-10T07:32:55;102558.66;;;0.80;100.00
7168;BME280;3625;51.762;14.320;2023-02-10T07:35:30;102567.59;;;1.01;100.00
7168;BME280;3625;51.762;14.320;2023-02-10T07:38:01;102567.69;;;1.20;100.00
7168;BME280;3625;51.762;14.320;2023-02-10T07:40:30;102570.81;;;1.31;100.00
7168;BME280;3625;51.762;14.320;2023-02-10T07:43:01;102593.38;;;1.48;100.00
7168;BME280;3625;51.762;14.320;2023-02-10T07:45:52;102573.22;;;1.62;100.00
7168;BME280;3625;51.762;14.320;2023-02-10T07:48:24;102579.00;;;1.74;100.00
7168;BME280;3625;51.762;14.320;2023-02-10T07:51:00;102583.19;;;1.70;100.00
7168;BME280;3625;51.762;14.320;2023-02-10T07:53:31;102578.72;;;1.68;100.00
7168;BME280;3625;51.762;14.320;2023-02-10T07:56:00;102574.47;;;1.70;100.00
7168;BME280;3625;51.762;14.320;2023-02-10T07:58:30;102582.28;;;1.70;100.00
7168;BME280;3625;51.762;14.320;2023-02-10T08:01:05;102574.00;;;1.78;100.00
7168;BME280;3625;51.762;14.320;2023-02-10T08:03:41;102561.03;;;1.80;100.00
7168;BME280;3625;51.762;14.320;2023-02-10T08:06:20;102563.84;;;1.84;100.00
7168;BME280;3625;51.762;14.320;2023-02-10T08:08:50;102573.78;;;1.74;100.00
7168;BME280;3625;51.762;14.320;2023-02-10T08:12:19;102573.31;;;1.82;100.00
7168;BME280;3625;51.762;14.320;2023-02-10T08:15:07;102579.38;;;1.81;100.00
7168;BME280;3625;51.762;14.320;2023-02-10T08:17:49;102573.94;;;1.77;100.00
7168;BME280;3625;51.762;14.320;2023-02-10T08:20:50;102588.78;;;1.78;100.00
7168;BME280;3625;51.762;14.320;2023-02-10T08:23:28;102587.50;;;1.87;100.00
7168;BME280;3625;51.762;14.320;2023-02-10T08:26:01;102596.97;;;1.85;100.00
7168;BME280;3625;51.762;14.320;2023-02-10T08:28:32;102599.94;;;1.93;100.00
7168;BME280;3625;51.762;14.320;2023-02-10T08:31:30;102606.56;;;2.04;100.00
7168;BME280;3625;51.762;14.320;2023-02-10T08:34:19;102342.44;;;0.62;100.00
7168;BME280;3625;51.762;14.320;2023-02-10T08:36:59;102609.63;;;2.33;100.00
7168;BME280;3625;51.762;14.320;2023-02-10T08:52:42;102616.22;;;3.03;100.00
7168;BME280;3625;51.762;14.320;2023-02-10T08:55:16;102608.47;;;3.04;100.00
7168;BME280;3625;51.762;14.320;2023-02-10T08:57:49;102606.63;;;3.23;100.00
7168;BME280;3625;51.762;14.320;2023-02-10T09:00:22;102607.09;;;3.54;100.00
7168;BME280;3625;51.762;14.320;2023-02-10T09:03:05;102609.81;;;3.78;99.70
7168;BME280;3625;51.762;14.320;2023-02-10T09:05:37;102603.97;;;3.85;97.72
7168;BME280;3625;51.762;14.320;2023-02-10T09:08:08;102379.41;;;2.44;96.58
7168;BME280;3625;51.762;14.320;2023-02-10T09:10:47;102602.78;;;3.77;96.33
7168;BME280;3625;51.762;14.320;2023-02-10T09:13:27;102530.56;;;3.39;96.30
7168;BME280;3625;51.762;14.320;2023-02-10T09:16:05;102612.13;;;3.70;96.57
7168;BME280;3625;51.762;14.320;2023-02-10T09:18:40;102613.16;;;3.53;97.51
7168;BME280;3625;51.762;14.320;2023-02-10T09:21:15;102612.94;;;3.69;98.07
7168;BME280;3625;51.762;14.320;2023-02-10T09:23:52;102606.69;;;3.66;97.99
7168;BME280;3625;51.762;14.320;2023-02-10T09:26:27;102616.16;;;3.85;97.40
7168;BME280;3625;51.762;14.320;2023-02-10T09:29:07;102611.66;;;4.03;96.77
7168;BME280;3625;51.762;14.320;2023-02-10T09:31:47;102611.63;;;4.25;96.73
7168;BME280;3625;51.762;14.320;2023-02-10T09:37:15;102599.63;;;4.54;94.66
7168;BME280;3625;51.762;14.320;2023-02-10T09:41:13;102402.56;;;3.44;92.81
7168;BME280;3625;51.762;14.320;2023-02-10T09:44:33;102611.72;;;4.50;93.74
7168;BME280;3625;51.762;14.320;2023-02-10T09:47:50;102277.59;;;2.46;94.94
7168;BME280;3625;51.762;14.320;2023-02-10T09:50:47;102297.81;;;2.51;95.23
7168;BME280;3625;51.762;14.320;2023-02-10T09:53:25;102603.19;;;4.32;95.68
7168;BME280;3625;51.762;14.320;2023-02-10T09:56:09;102616.50;;;4.38;96.06
7168;BME280;3625;51.762;14.320;2023-02-10T09:58:54;102234.69;;;2.18;95.83
7168;BME280;3625;51.762;14.320;2023-02-10T10:05:55;102626.50;;;4.48;96.83
7168;BME280;3625;51.762;14.320;2023-02-10T10:13:13;102543.59;;;4.76;94.82
7168;BME280;3625;51.762;14.320;2023-02-10T10:23:38;102517.69;;;5.37;87.55
7168;BME280;3625;51.762;14.320;2023-02-10T11:34:19;102525.94;;;6.34;79.09
7168;BME280;3625;51.762;14.320;2023-02-10T11:36:49;102645.03;;;6.92;79.33
7168;BME280;3625;51.762;14.320;2023-02-10T11:39:33;102646.94;;;6.67;79.64
7168;BME280;3625;51.762;14.320;2023-02-10T11:42:10;102643.28;;;6.92;80.30
7168;BME280;3625;51.762;14.320;2023-02-10T11:44:56;102482.91;;;6.31;77.96
7168;BME280;3625;51.762;14.320;2023-02-10T11:47:27;102510.50;;;6.47;77.71
7168;BME280;3625;51.762;14.320;2023-02-10T11:49:57;102638.94;;;7.26;77.07
7168;BME280;3625;51.762;14.320;2023-02-10T11:52:30;102290.44;;;5.45;76.55
7168;BME280;3625;51.762;14.320;2023-02-10T11:55:03;102632.53;;;7.49;75.93
7168;BME280;3625;51.762;14.320;2023-02-10T11:57:48;102472.63;;;6.73;75.78
7168;BME280;3625;51.762;14.320;2023-02-10T12:00:50;102502.16;;;6.96;73.24
7168;BME280;3625;51.762;14.320;2023-02-10T12:03:41;102383.03;;;5.99;73.59
7168;BME280;3625;51.762;14.320;2023-02-10T12:06:27;102325.38;;;5.74;74.06
7168;BME280;3625;51.762;14.320;2023-02-10T12:09:11;102630.31;;;7.66;74.34
7168;BME280;3625;51.762;14.320;2023-02-10T12:11:51;102642.78;;;7.73;72.37
7168;BME280;3625;51.762;14.320;2023-02-10T12:14:57;102451.16;;;6.25;74.57
7168;BME280;3625;51.762;14.320;2023-02-10T12:17:53;102341.06;;;5.71;74.47
7168;BME280;3625;51.762;14.320;2023-02-10T12:20:52;102439.81;;;6.59;74.29
7168;BME280;3625;51.762;14.320;2023-02-10T12:23:44;102646.47;;;7.81;72.24
7168;BME280;3625;51.762;14.320;2023-02-10T12:26:26;102599.38;;;7.96;72.32
7168;BME280;3625;51.762;14.320;2023-02-10T12:29:13;102568.34;;;7.83;70.74
7168;BME280;3625;51.762;14.320;2023-02-10T12:32:01;102444.63;;;7.11;71.03
7168;BME280;3625;51.762;14.320;2023-02-10T12:34:57;102350.06;;;6.45;71.10
7168;BME280;3625;51.762;14.320;2023-02-10T12:37:43;102636.22;;;7.57;71.97
7168;BME280;3625;51.762;14.320;2023-02-10T12:40:48;102498.44;;;6.55;74.26
7168;BME280;3625;51.762;14.320;2023-02-10T12:43:46;102599.81;;;6.73;77.23
7168;BME280;3625;51.762;14.320;2023-02-10T12:46:32;102494.94;;;5.93;78.95
7168;BME280;3625;51.762;14.320;2023-02-10T12:49:29;102519.44;;;6.22;79.21
7168;BME280;3625;51.762;14.320;2023-02-10T12:52:10;102331.78;;;5.22;78.70
7168;BME280;3625;51.762;14.320;2023-02-10T12:54:50;102612.09;;;7.06;77.47
7168;BME280;3625;51.762;14.320;2023-02-10T12:57:36;102603.03;;;6.96;77.55
7168;BME280;3625;51.762;14.320;2023-02-10T13:00:28;102333.84;;;5.32;77.57
7168;BME280;3625;51.762;14.320;2023-02-10T13:03:17;102414.91;;;5.52;79.21
7168;BME280;3625;51.762;14.320;2023-02-10T13:06:11;102481.28;;;6.04;79.61
7168;BME280;3625;51.762;14.320;2023-02-10T13:08:53;102528.06;;;6.49;78.90
7168;BME280;3625;51.762;14.320;2023-02-10T13:11:36;102324.66;;;5.48;77.52
7168;BME280;3625;51.762;14.320;2023-02-10T13:24:34;102329.88;;;4.88;80.42
7168;BME280;3625;51.762;14.320;2023-02-10T13:32:29;102614.84;;;6.49;81.89
7168;BME280;3625;51.762;14.320;2023-02-10T13:35:11;102540.09;;;6.10;82.65
7168;BME280;3625;51.762;14.320;2023-02-10T13:38:20;102590.22;;;6.16;83.94
7168;BME280;3625;51.762;14.320;2023-02-10T13:41:30;102472.44;;;5.46;84.37
7168;BME280;3625;51.762;14.320;2023-02-10T13:44:31;102450.25;;;5.35;84.72
7168;BME280;3625;51.762;14.320;2023-02-10T13:47:59;102273.47;;;4.19;86.49
7168;BME280;3625;51.762;14.320;2023-02-10T13:50:53;102336.97;;;4.37;87.67
7168;BME280;3625;51.762;14.320;2023-02-10T13:53:42;102258.88;;;3.75;88.74
7168;BME280;3625;51.762;14.320;2023-02-10T13:56:29;102453.59;;;4.77;90.42
7168;BME280;3625;51.762;14.320;2023-02-10T13:59:01;102405.28;;;4.43;90.70
7168;BME280;3625;51.762;14.320;2023-02-10T14:01:33;102575.09;;;5.26;92.92
7168;BME280;3625;51.762;14.320;2023-02-10T14:04:29;102278.03;;;3.49;93.46
7168;BME280;3625;51.762;14.320;2023-02-10T14:07:32;102415.03;;;4.22;94.24
7168;BME280;3625;51.762;14.320;2023-02-10T14:10:34;102226.09;;;3.12;94.72
7168;BME280;3625;51.762;14.320;2023-02-10T14:13:33;102488.69;;;4.55;96.03
7168;BME280;3625;51.762;14.320;2023-02-10T14:16:42;102449.88;;;4.20;95.28
7168;BME280;3625;51.762;14.320;2023-02-10T14:20:15;102576.53;;;4.93;96.99
7168;BME280;3625;51.762;14.320;2023-02-10T14:23:07;102587.28;;;4.99;97.05
7168;BME280;3625;51.762;14.320;2023-02-10T14:25:40;102569.28;;;5.10;96.89
7168;BME280;3625;51.762;14.320;2023-02-10T14:28:22;102575.81;;;5.22;96.32
7168;BME280;3625;51.762;14.320;2023-02-10T14:31:11;102262.53;;;3.55;95.18
7168;BME280;3625;51.762;14.320;2023-02-10T14:33:55;102350.25;;;3.93;95.46
7168;BME280;3625;51.762;14.320;2023-02-10T14:36:33;102578.03;;;5.37;95.15
7168;BME280;3625;51.762;14.320;2023-02-10T14:39:04;102570.22;;;5.39;94.49
7168;BME280;3625;51.762;14.320;2023-02-10T14:41:36;102505.56;;;5.14;94.30
7168;BME280;3625;51.762;14.320;2023-02-10T14:44:25;102555.72;;;5.50;93.79
7168;BME280;3625;51.762;14.320;2023-02-10T14:46:58;102561.16;;;5.29;94.49
7168;BME280;3625;51.762;14.320;2023-02-10T14:49:29;102561.53;;;5.14;95.46
7168;BME280;3625;51.762;14.320;2023-02-10T14:52:16;102562.91;;;5.03;96.52
7168;BME280;3625;51.762;14.320;2023-02-10T14:55:24;102378.63;;;3.80;97.51
7168;BME280;3625;51.762;14.320;2023-02-10T14:58:05;102571.41;;;4.96;98.18
7168;BME280;3625;51.762;14.320;2023-02-10T15:00:36;102561.88;;;4.98;98.12
7168;BME280;3625;51.762;14.320;2023-02-10T15:03:12;102354.53;;;3.89;97.58
7168;BME280;3625;51.762;14.320;2023-02-10T15:05:56;102490.38;;;4.78;96.99
7168;BME280;3625;51.762;14.320;2023-02-10T15:08:41;102218.13;;;3.32;96.96
7168;BME280;3625;51.762;14.320;2023-02-10T15:11:30;102547.72;;;5.18;96.66
7168;BME280;3625;51.762;14.320;2023-02-10T15:14:26;102554.72;;;5.19;96.62
7168;BME280;3625;51.762;14.320;2023-02-10T15:17:02;102464.28;;;4.56;96.91
7168;BME280;3625;51.762;14.320;2023-02-10T15:19:35;102562.25;;;5.09;97.57
7168;BME280;3625;51.762;14.320;2023-02-10T15:22:32;102574.59;;;5.13;97.81
7168;BME280;3625;51.762;14.320;2023-02-10T15:25:31;102550.75;;;5.05;97.51
7168;BME280;3625;51.762;14.320;2023-02-10T15:28:25;102293.28;;;3.36;97.20
7168;BME280;3625;51.762;14.320;2023-02-10T15:31:05;102283.38;;;3.28;97.88
7168;BME280;3625;51.762;14.320;2023-02-10T15:33:50;102412.72;;;4.06;98.28
7168;BME280;3625;51.762;14.320;2023-02-10T15:36:27;102417.84;;;4.03;98.65
7168;BME280;3625;51.762;14.320;2023-02-10T15:42:31;102571.66;;;4.78;100.00
7168;BME280;3625;51.762;14.320;2023-02-10T15:45:12;102512.75;;;4.43;100.00
7168;BME280;3625;51.762;14.320;2023-02-10T15:48:01;102601.19;;;4.73;100.00
7168;BME280;3625;51.762;14.320;2023-02-10T15:51:00;102567.72;;;4.66;100.00
7168;BME280;3625;51.762;14.320;2023-02-10T15:54:08;102560.75;;;4.66;100.00
7168;BME280;3625;51.762;14.320;2023-02-10T15:57:15;102241.44;;;2.79;100.00
7168;BME280;3625;51.762;14.320;2023-02-10T15:59:53;102561.41;;;4.61;100.00
7168;BME280;3625;51.762;14.320;2023-02-10T16:02:30;102557.69;;;4.54;100.00
7168;BME280;3625;51.762;14.320;2023-02-10T16:05:12;102563.69;;;4.51;100.00
7168;BME280;3625;51.762;14.320;2023-02-10T16:08:05;102483.38;;;4.04;100.00
7168;BME280;3625;51.762;14.320;2023-02-10T16:10:41;102560.16;;;4.49;100.00
7168;BME280;3625;51.762;14.320;2023-02-10T16:13:26;102562.59;;;4.45;100.00
7168;BME280;3625;51.762;14.320;2023-02-10T16:16:57;102557.19;;;4.40;100.00
7168;BME280;3625;51.762;14.320;2023-02-10T16:25:44;102174.56;;;2.15;100.00
7168;BME280;3625;51.762;14.320;2023-02-10T16:33:16;102546.38;;;4.31;100.00
7168;BME280;3625;51.762;14.320;2023-02-10T16:51:44;102539.63;;;4.14;100.00
7168;BME280;3625;51.762;14.320;2023-02-10T16:54:22;102539.56;;;4.12;100.00
7168;BME280;3625;51.762;14.320;2023-02-10T16:56:52;102535.22;;;4.13;100.00
7168;BME280;3625;51.762;14.320;2023-02-10T16:59:33;102545.69;;;4.13;100.00
7168;BME280;3625;51.762;14.320;2023-02-10T17:02:28;102547.50;;;4.15;100.00
7168;BME280;3625;51.762;14.320;2023-02-10T17:13:51;102557.72;;;4.08;100.00
7168;BME280;3625;51.762;14.320;2023-02-10T17:16:37;102359.47;;;2.89;100.00
7168;BME280;3625;51.762;14.320;2023-02-10T17:19:28;102354.25;;;2.89;100.00
7168;BME280;3625;51.762;14.320;2023-02-10T17:22:47;102458.50;;;3.47;100.00
7168;BME280;3625;51.762;14.320;2023-02-10T17:30:09;102548.88;;;4.04;100.00
7168;BME280;3625;51.762;14.320;2023-02-10T17:33:03;102547.97;;;4.04;100.00
7168;BME280;3625;51.762;14.320;2023-02-10T17:35:46;102551.41;;;4.03;100.00